createdAt,value
2018-08-25T00:00:24.480Z,23.08
2018-08-25T00:02:17.301Z,23.07
2018-08-25T00:03:17.221Z,23.14
2018-08-25T00:05:10.014Z,23.14
2018-08-25T00:06:09.965Z,23.07
2018-08-25T00:08:02.785Z,23.17
2018-08-25T00:09:02.708Z,23.09
2018-08-25T00:10:55.498Z,23.07
2018-08-25T00:11:55.450Z,23.08
2018-08-25T00:13:48.272Z,23.12
2018-08-25T00:14:48.195Z,23.11
2018-08-25T00:16:40.981Z,23.19
2018-08-25T00:17:40.936Z,23.08
2018-08-25T00:19:33.758Z,23.12
2018-08-25T00:20:33.678Z,23.08
2018-08-25T00:22:26.476Z,23.08
2018-08-25T00:23:26.420Z,23.12
2018-08-25T00:25:19.242Z,23.11
2018-08-25T00:26:19.163Z,23.11
2018-08-25T00:28:11.951Z,23.08
2018-08-25T00:29:11.904Z,23.14
2018-08-25T00:31:04.725Z,23.09
2018-08-25T00:32:04.645Z,23.11
2018-08-25T00:33:57.435Z,23.14
2018-08-25T00:34:57.390Z,23.14
2018-08-25T00:36:50.210Z,23.14
2018-08-25T00:37:50.132Z,23.17
2018-08-25T00:39:42.921Z,23.12
2018-08-25T00:40:42.872Z,23.12
2018-08-25T00:42:35.696Z,23.15
2018-08-25T00:43:35.611Z,23.07
2018-08-25T00:45:28.401Z,23.12
2018-08-25T00:46:28.352Z,23.12
2018-08-25T00:48:21.174Z,23.11
2018-08-25T00:49:21.095Z,23.08
2018-08-25T00:51:13.886Z,23.17
2018-08-25T00:52:13.840Z,23.17
2018-08-25T00:54:06.660Z,23.17
2018-08-25T00:55:06.583Z,23.12
2018-08-25T00:56:59.372Z,23.17
2018-08-25T00:57:59.322Z,23.14
2018-08-25T00:59:52.144Z,23.12
2018-08-25T01:00:52.065Z,23.14
2018-08-25T01:02:44.852Z,23.14
2018-08-25T01:03:44.805Z,23.17
2018-08-25T01:05:37.627Z,23.20
2018-08-25T01:06:37.547Z,23.11
2018-08-25T01:08:30.338Z,23.11
2018-08-25T01:09:30.290Z,23.11
2018-08-25T01:11:23.110Z,23.12
2018-08-25T01:12:23.036Z,23.12
2018-08-25T01:14:15.822Z,23.17
2018-08-25T01:15:15.774Z,23.14
2018-08-25T01:17:08.592Z,23.19
2018-08-25T01:18:08.513Z,23.19
2018-08-25T01:20:01.306Z,23.19
2018-08-25T01:21:01.258Z,23.19
2018-08-25T01:22:54.082Z,23.14
2018-08-25T01:23:54.003Z,23.15
2018-08-25T01:25:46.797Z,23.11
2018-08-25T01:26:46.746Z,23.09
2018-08-25T01:28:39.565Z,23.09
2018-08-25T01:29:39.484Z,23.07
2018-08-25T01:31:32.277Z,23.14
2018-08-25T01:32:32.229Z,23.09
2018-08-25T01:34:25.048Z,23.19
2018-08-25T01:35:24.972Z,23.14
2018-08-25T01:37:17.761Z,23.14
2018-08-25T01:38:17.714Z,23.12
2018-08-25T01:40:10.535Z,23.12
2018-08-25T01:41:10.458Z,23.17
2018-08-25T01:43:03.245Z,23.22
2018-08-25T01:44:03.196Z,23.20
2018-08-25T01:45:56.016Z,23.19
2018-08-25T01:46:55.939Z,23.14
2018-08-25T01:48:48.731Z,23.19
2018-08-25T01:49:48.682Z,23.12
2018-08-25T01:51:41.514Z,23.22
2018-08-25T01:52:41.425Z,23.14
2018-08-25T01:54:34.216Z,23.20
2018-08-25T01:55:34.168Z,23.17
2018-08-25T01:57:26.990Z,23.05
2018-08-25T01:58:26.910Z,23.09
2018-08-25T02:00:19.702Z,23.11
2018-08-25T02:01:19.654Z,23.12
2018-08-25T02:03:12.475Z,23.22
2018-08-25T02:04:12.397Z,23.08
2018-08-25T02:06:05.188Z,23.22
2018-08-25T02:07:05.140Z,23.12
2018-08-25T02:08:57.968Z,23.17
2018-08-25T02:09:57.885Z,23.24
2018-08-25T02:11:50.674Z,23.22
2018-08-25T02:12:50.624Z,23.12
2018-08-25T02:14:43.449Z,23.22
2018-08-25T02:15:43.367Z,23.12
2018-08-25T02:17:36.159Z,23.14
2018-08-25T02:18:36.111Z,23.22
2018-08-25T02:20:28.930Z,23.20
2018-08-25T02:21:28.857Z,23.14
2018-08-25T02:23:21.644Z,23.19
2018-08-25T02:24:21.596Z,23.22
2018-08-25T02:26:14.421Z,23.08
2018-08-25T02:27:14.337Z,23.20
2018-08-25T02:29:07.132Z,23.14
2018-08-25T02:30:07.085Z,23.14
2018-08-25T02:31:59.910Z,23.17
2018-08-25T02:32:59.823Z,23.14
2018-08-25T02:34:52.615Z,23.12
2018-08-25T02:35:52.565Z,23.20
2018-08-25T02:37:45.386Z,23.22
2018-08-25T02:38:45.349Z,23.14
2018-08-25T02:40:38.098Z,23.19
2018-08-25T02:41:38.049Z,23.19
2018-08-25T02:43:30.874Z,23.24
2018-08-25T02:44:30.793Z,23.14
2018-08-25T02:46:23.585Z,23.23
2018-08-25T02:47:23.539Z,23.12
2018-08-25T02:49:16.355Z,23.12
2018-08-25T02:50:16.278Z,23.11
2018-08-25T02:52:09.069Z,23.07
2018-08-25T02:53:09.027Z,23.20
2018-08-25T02:55:01.842Z,23.12
2018-08-25T02:56:01.766Z,23.19
2018-08-25T02:57:54.556Z,23.24
2018-08-25T02:58:54.505Z,23.14
2018-08-25T03:00:47.338Z,23.11
2018-08-25T03:01:47.248Z,23.14
2018-08-25T03:03:40.039Z,23.20
2018-08-25T03:04:39.990Z,23.22
2018-08-25T03:06:32.810Z,23.11
2018-08-25T03:07:32.733Z,23.09
2018-08-25T03:09:25.536Z,23.19
2018-08-25T03:10:25.475Z,23.24
2018-08-25T03:12:18.300Z,23.14
2018-08-25T03:13:18.216Z,23.11
2018-08-25T03:15:11.007Z,23.23
2018-08-25T03:16:10.966Z,23.12
2018-08-25T03:18:03.778Z,23.24
2018-08-25T03:19:03.700Z,23.17
2018-08-25T03:20:56.493Z,23.14
2018-08-25T03:21:56.444Z,23.17
2018-08-25T03:23:49.268Z,23.11
2018-08-25T03:24:49.185Z,23.20
2018-08-25T03:26:41.974Z,23.19
2018-08-25T03:27:41.930Z,23.15
2018-08-25T03:29:34.748Z,23.09
2018-08-25T03:30:34.670Z,23.12
2018-08-25T03:32:27.458Z,23.12
2018-08-25T03:33:27.410Z,23.22
2018-08-25T03:35:20.228Z,23.14
2018-08-25T03:36:20.151Z,23.12
2018-08-25T03:38:12.941Z,23.11
2018-08-25T03:39:12.893Z,23.24
2018-08-25T03:41:05.712Z,23.15
2018-08-25T03:42:05.637Z,23.11
2018-08-25T03:43:58.425Z,23.09
2018-08-25T03:44:58.375Z,23.19
2018-08-25T03:46:51.209Z,23.26
2018-08-25T03:47:51.118Z,23.19
2018-08-25T03:49:43.908Z,23.14
2018-08-25T03:50:43.858Z,23.17
2018-08-25T03:52:36.687Z,23.20
2018-08-25T03:53:36.602Z,23.11
2018-08-25T03:55:29.481Z,23.09
2018-08-25T03:56:29.343Z,23.17
2018-08-25T03:58:22.172Z,23.23
2018-08-25T03:59:22.084Z,23.22
2018-08-25T04:01:14.876Z,23.20
2018-08-25T04:02:14.828Z,23.09
2018-08-25T04:04:07.655Z,23.08
2018-08-25T04:05:07.580Z,23.22
2018-08-25T04:07:00.364Z,23.11
2018-08-25T04:08:00.315Z,23.20
2018-08-25T04:09:53.152Z,23.20
2018-08-25T04:10:53.057Z,23.17
2018-08-25T04:12:45.850Z,23.14
2018-08-25T04:13:45.800Z,23.23
2018-08-25T04:15:38.633Z,23.12
2018-08-25T04:16:38.540Z,23.19
2018-08-25T04:18:31.329Z,23.20
2018-08-25T04:19:31.281Z,23.19
2018-08-25T04:21:24.106Z,23.24
2018-08-25T04:22:24.092Z,23.19
2018-08-25T04:24:16.810Z,23.14
2018-08-25T04:25:16.762Z,23.11
2018-08-25T04:27:09.582Z,23.20
2018-08-25T04:28:09.505Z,23.15
2018-08-25T04:30:02.296Z,23.20
2018-08-25T04:31:02.250Z,23.15
2018-08-25T04:32:55.069Z,23.09
2018-08-25T04:33:54.991Z,23.11
2018-08-25T04:35:47.784Z,23.15
2018-08-25T04:36:47.742Z,23.19
2018-08-25T04:38:40.556Z,23.12
2018-08-25T04:39:40.478Z,23.14
2018-08-25T04:41:33.268Z,23.14
2018-08-25T04:42:33.217Z,23.20
2018-08-25T04:44:26.039Z,23.17
2018-08-25T04:45:25.961Z,23.17
2018-08-25T04:47:18.756Z,23.24
2018-08-25T04:48:18.707Z,23.22
2018-08-25T04:50:11.529Z,23.09
2018-08-25T04:51:11.450Z,23.20
2018-08-25T04:53:04.245Z,23.20
2018-08-25T04:54:04.192Z,23.24
2018-08-25T04:55:57.019Z,23.12
2018-08-25T04:56:56.937Z,23.22
2018-08-25T04:58:49.727Z,23.22
2018-08-25T04:59:49.680Z,23.12
2018-08-25T05:01:42.544Z,23.20
2018-08-25T05:02:42.420Z,23.15
2018-08-25T05:04:35.212Z,23.15
2018-08-25T05:05:35.164Z,23.09
2018-08-25T05:07:28.033Z,23.23
2018-08-25T05:08:27.903Z,23.14
2018-08-25T05:10:20.691Z,23.12
2018-08-25T05:11:20.644Z,23.19
2018-08-25T05:13:13.465Z,23.14
2018-08-25T05:14:13.392Z,23.17
2018-08-25T05:16:06.180Z,23.14
2018-08-25T05:17:06.132Z,23.24
2018-08-25T05:18:58.950Z,23.19
2018-08-25T05:19:58.872Z,23.20
2018-08-25T05:21:51.685Z,23.14
2018-08-25T05:22:51.617Z,23.15
2018-08-25T05:24:44.442Z,23.11
2018-08-25T05:25:44.364Z,23.22
2018-08-25T05:27:37.153Z,23.07
2018-08-25T05:28:37.105Z,23.19
2018-08-25T05:30:29.960Z,23.19
2018-08-25T05:31:29.881Z,23.19
2018-08-25T05:33:22.672Z,23.15
2018-08-25T05:34:22.626Z,23.12
2018-08-25T05:36:15.444Z,23.22
2018-08-25T05:37:15.367Z,23.22
2018-08-25T05:39:08.158Z,23.20
2018-08-25T05:40:08.111Z,23.24
2018-08-25T05:42:00.933Z,23.19
2018-08-25T05:43:00.856Z,23.22
2018-08-25T05:44:53.647Z,23.12
2018-08-25T05:45:53.599Z,23.24
2018-08-25T05:47:46.419Z,23.08
2018-08-25T05:48:46.341Z,23.08
2018-08-25T05:50:39.132Z,23.17
2018-08-25T05:51:39.081Z,23.17
2018-08-25T05:53:31.905Z,23.09
2018-08-25T05:54:31.826Z,23.12
2018-08-25T05:56:24.614Z,23.24
2018-08-25T05:57:24.569Z,23.19
2018-08-25T05:59:17.386Z,23.22
2018-08-25T06:00:17.310Z,23.26
2018-08-25T06:02:10.098Z,23.26
2018-08-25T06:03:10.050Z,23.04
2018-08-25T06:05:02.872Z,23.07
2018-08-25T06:06:02.792Z,23.05
2018-08-25T06:07:55.582Z,23.19
2018-08-25T06:08:55.535Z,23.14
2018-08-25T06:10:48.354Z,23.15
2018-08-25T06:11:48.274Z,23.19
2018-08-25T06:13:41.066Z,23.15
2018-08-25T06:14:41.019Z,23.26
2018-08-25T06:16:33.841Z,23.23
2018-08-25T06:17:33.818Z,23.20
2018-08-25T06:19:26.553Z,23.07
2018-08-25T06:20:26.503Z,23.27
2018-08-25T06:22:19.326Z,23.23
2018-08-25T06:23:19.247Z,23.07
2018-08-25T06:25:12.036Z,23.20
2018-08-25T06:26:11.989Z,23.20
2018-08-25T06:28:04.808Z,23.15
2018-08-25T06:29:04.732Z,23.08
2018-08-25T06:30:57.523Z,23.11
2018-08-25T06:31:57.473Z,23.07
2018-08-25T06:33:50.292Z,23.15
2018-08-25T06:34:50.214Z,23.15
2018-08-25T06:36:43.110Z,23.12
2018-08-25T06:37:42.959Z,23.11
2018-08-25T06:39:35.780Z,23.08
2018-08-25T06:40:35.700Z,23.08
2018-08-25T06:42:28.506Z,23.27
2018-08-25T06:43:28.453Z,23.09
2018-08-25T06:45:21.263Z,23.22
2018-08-25T06:46:21.185Z,23.22
2018-08-25T06:48:13.977Z,23.26
2018-08-25T06:49:13.928Z,23.12
2018-08-25T06:51:06.760Z,23.09
2018-08-25T06:52:06.671Z,23.26
2018-08-25T06:53:59.473Z,23.17
2018-08-25T06:54:59.424Z,23.20
2018-08-25T06:56:52.246Z,23.11
2018-08-25T06:57:52.166Z,23.11
2018-08-25T06:59:44.969Z,23.22
2018-08-25T07:00:44.910Z,23.09
2018-08-25T07:02:37.728Z,23.14
2018-08-25T07:03:37.650Z,23.07
2018-08-25T07:05:30.439Z,23.20
2018-08-25T07:06:30.391Z,23.17
2018-08-25T07:08:23.211Z,23.11
2018-08-25T07:09:23.130Z,23.22
2018-08-25T07:11:15.922Z,23.19
2018-08-25T07:12:15.878Z,23.11
2018-08-25T07:14:08.697Z,23.12
2018-08-25T07:15:08.619Z,23.15
2018-08-25T07:17:01.411Z,23.22
2018-08-25T07:18:01.362Z,23.12
2018-08-25T07:19:54.198Z,23.08
2018-08-25T07:20:54.106Z,23.11
2018-08-25T07:22:46.895Z,23.24
2018-08-25T07:23:46.847Z,23.14
2018-08-25T07:25:39.706Z,23.20
2018-08-25T07:26:39.591Z,23.08
2018-08-25T07:28:32.384Z,23.08
2018-08-25T07:29:32.335Z,23.14
2018-08-25T07:31:25.158Z,23.08
2018-08-25T07:32:25.087Z,23.14
2018-08-25T07:34:17.870Z,23.08
2018-08-25T07:35:17.821Z,23.24
2018-08-25T07:37:10.642Z,23.12
2018-08-25T07:38:10.572Z,23.14
2018-08-25T07:40:03.357Z,23.11
2018-08-25T07:41:03.307Z,23.14
2018-08-25T07:42:56.132Z,23.26
2018-08-25T07:43:56.052Z,23.15
2018-08-25T07:45:48.843Z,23.19
2018-08-25T07:46:48.799Z,23.09
2018-08-25T07:48:41.708Z,23.08
2018-08-25T07:49:41.640Z,23.23
2018-08-25T07:51:34.328Z,23.22
2018-08-25T07:52:34.285Z,23.22
2018-08-25T07:54:27.103Z,23.17
2018-08-25T07:55:27.025Z,23.08
2018-08-25T07:57:19.814Z,23.14
2018-08-25T07:58:19.790Z,23.19
2018-08-25T08:00:12.585Z,23.14
2018-08-25T08:01:12.504Z,23.09
2018-08-25T08:03:05.293Z,23.20
2018-08-25T08:04:05.244Z,23.17
2018-08-25T08:05:58.067Z,23.22
2018-08-25T08:06:57.987Z,23.17
2018-08-25T08:08:50.776Z,23.17
2018-08-25T08:09:50.727Z,23.08
2018-08-25T08:11:43.589Z,23.09
2018-08-25T08:12:43.467Z,23.22
2018-08-25T08:14:36.259Z,23.23
2018-08-25T08:15:36.211Z,23.17
2018-08-25T08:17:29.034Z,23.17
2018-08-25T08:18:28.954Z,23.07
2018-08-25T08:20:21.745Z,23.05
2018-08-25T08:21:21.698Z,23.12
2018-08-25T08:23:14.520Z,23.22
2018-08-25T08:24:14.441Z,23.14
2018-08-25T08:26:07.234Z,23.12
2018-08-25T08:27:07.188Z,23.09
2018-08-25T08:29:00.007Z,23.04
2018-08-25T08:29:59.929Z,23.14
2018-08-25T08:31:52.726Z,23.15
2018-08-25T08:32:52.708Z,23.24
2018-08-25T08:34:45.500Z,23.12
2018-08-25T08:35:45.424Z,23.19
2018-08-25T08:37:38.212Z,23.22
2018-08-25T08:38:38.165Z,23.11
2018-08-25T08:40:30.986Z,23.09
2018-08-25T08:41:30.907Z,23.09
2018-08-25T08:43:23.699Z,23.24
2018-08-25T08:44:23.650Z,23.26
2018-08-25T08:46:16.471Z,23.19
2018-08-25T08:47:16.408Z,23.20
2018-08-25T08:49:09.183Z,23.17
2018-08-25T08:50:09.135Z,23.20
2018-08-25T08:52:01.958Z,23.22
2018-08-25T08:53:01.879Z,23.08
2018-08-25T08:54:54.671Z,23.09
2018-08-25T08:55:54.623Z,23.15
2018-08-25T08:57:47.447Z,23.14
2018-08-25T08:58:47.367Z,23.17
2018-08-25T09:00:40.155Z,23.09
2018-08-25T09:01:40.106Z,23.17
2018-08-25T09:03:32.998Z,23.17
2018-08-25T09:04:32.849Z,23.19
2018-08-25T09:06:25.644Z,23.11
2018-08-25T09:07:25.638Z,23.05
2018-08-25T09:09:18.418Z,23.02
2018-08-25T09:10:18.391Z,22.99
2018-08-25T09:12:11.131Z,22.94
2018-08-25T09:13:11.136Z,22.97
2018-08-25T09:15:03.903Z,22.93
2018-08-25T09:16:03.828Z,23.02
2018-08-25T09:17:56.624Z,22.92
2018-08-25T09:18:56.569Z,22.89
2018-08-25T09:20:49.388Z,22.92
2018-08-25T09:21:49.310Z,22.83
2018-08-25T09:23:42.103Z,22.84
2018-08-25T09:24:42.052Z,22.83
2018-08-25T09:26:34.869Z,22.75
2018-08-25T09:27:34.862Z,22.71
2018-08-25T09:29:27.585Z,22.74
2018-08-25T09:30:27.535Z,22.72
2018-08-25T09:32:20.357Z,22.64
2018-08-25T09:33:20.281Z,22.64
2018-08-25T09:35:13.069Z,22.72
2018-08-25T09:36:13.036Z,22.68
2018-08-25T09:38:05.843Z,22.60
2018-08-25T09:39:05.761Z,22.57
2018-08-25T09:40:58.552Z,22.67
2018-08-25T09:41:58.504Z,22.57
2018-08-25T09:43:51.333Z,22.54
2018-08-25T09:44:51.247Z,22.62
2018-08-25T09:46:44.049Z,22.56
2018-08-25T09:47:43.995Z,22.54
2018-08-25T09:49:36.814Z,22.54
2018-08-25T09:50:36.732Z,22.52
2018-08-25T09:52:29.521Z,22.43
2018-08-25T09:53:29.531Z,22.46
2018-08-25T09:55:22.300Z,22.41
2018-08-25T09:56:22.215Z,22.38
2018-08-25T09:58:15.005Z,22.35
2018-08-25T09:59:14.956Z,22.28
2018-08-25T10:01:07.780Z,22.17
2018-08-25T10:02:07.695Z,22.12
2018-08-25T10:04:00.487Z,22.12
2018-08-25T10:05:00.437Z,22.12
2018-08-25T10:06:53.263Z,22.09
2018-08-25T10:07:53.175Z,22.02
2018-08-25T10:09:45.967Z,22.19
2018-08-25T10:10:45.968Z,22.19
2018-08-25T10:12:38.741Z,22.23
2018-08-25T10:13:38.661Z,22.20
2018-08-25T10:15:31.455Z,22.19
2018-08-25T10:16:31.450Z,22.17
2018-08-25T10:18:24.236Z,22.17
2018-08-25T10:19:24.145Z,22.20
2018-08-25T10:21:16.936Z,22.16
2018-08-25T10:22:16.887Z,22.16
2018-08-25T10:24:09.709Z,22.17
2018-08-25T10:25:09.630Z,22.23
2018-08-25T10:27:02.419Z,22.19
2018-08-25T10:28:02.378Z,22.06
2018-08-25T10:29:55.188Z,22.01
2018-08-25T10:30:55.110Z,21.92
2018-08-25T10:32:47.930Z,21.91
2018-08-25T10:33:47.849Z,21.91
2018-08-25T10:35:40.680Z,21.79
2018-08-25T10:36:40.589Z,21.66
2018-08-25T10:38:33.383Z,21.39
2018-08-25T10:39:33.328Z,21.34
2018-08-25T10:41:26.156Z,21.13
2018-08-25T10:42:26.070Z,21.09
2018-08-25T10:44:18.861Z,21.02
2018-08-25T10:45:18.812Z,20.91
2018-08-25T10:47:11.633Z,20.83
2018-08-25T10:48:11.667Z,20.96
2018-08-25T10:50:04.339Z,21.05
2018-08-25T10:51:04.290Z,21.11
2018-08-25T10:52:57.108Z,21.11
2018-08-25T10:53:57.044Z,21.21
2018-08-25T10:55:49.820Z,21.16
2018-08-25T10:56:49.770Z,21.34
2018-08-25T10:58:42.588Z,21.30
2018-08-25T10:59:42.510Z,21.34
2018-08-25T11:01:35.300Z,21.27
2018-08-25T11:02:35.250Z,21.32
2018-08-25T11:04:28.072Z,21.21
2018-08-25T11:05:27.992Z,21.23
2018-08-25T11:07:20.781Z,21.34
2018-08-25T11:08:20.733Z,21.36
2018-08-25T11:10:13.553Z,21.42
2018-08-25T11:11:13.472Z,21.42
2018-08-25T11:13:06.259Z,21.42
2018-08-25T11:14:06.214Z,21.41
2018-08-25T11:15:59.028Z,21.38
2018-08-25T11:16:58.948Z,21.44
2018-08-25T11:18:51.738Z,21.42
2018-08-25T11:19:51.692Z,21.39
2018-08-25T11:21:44.506Z,21.30
2018-08-25T11:22:44.427Z,21.29
2018-08-25T11:24:37.220Z,21.19
2018-08-25T11:25:37.169Z,21.20
2018-08-25T11:27:29.999Z,21.14
2018-08-25T11:28:29.905Z,21.02
2018-08-25T11:30:22.691Z,20.84
2018-08-25T11:31:22.642Z,20.86
2018-08-25T11:33:15.473Z,20.87
2018-08-25T11:34:15.383Z,20.91
2018-08-25T11:36:08.168Z,20.89
2018-08-25T11:37:08.130Z,20.86
2018-08-25T11:39:00.938Z,20.98
2018-08-25T11:40:00.861Z,20.91
2018-08-25T11:41:53.653Z,20.87
2018-08-25T11:42:53.598Z,20.81
2018-08-25T11:44:46.424Z,20.86
2018-08-25T11:45:46.337Z,20.89
2018-08-25T11:47:39.128Z,20.89
2018-08-25T11:48:39.077Z,20.89
2018-08-25T11:50:31.898Z,20.86
2018-08-25T11:51:31.817Z,20.83
2018-08-25T11:53:24.604Z,20.87
2018-08-25T11:54:24.556Z,20.80
2018-08-25T11:56:17.376Z,20.89
2018-08-25T11:57:17.296Z,20.86
2018-08-25T11:59:10.091Z,20.84
2018-08-25T12:00:10.049Z,20.96
2018-08-25T12:02:02.863Z,20.90
2018-08-25T12:03:03.834Z,20.98
2018-08-25T12:04:55.559Z,20.86
2018-08-25T12:05:55.510Z,20.90
2018-08-25T12:07:48.329Z,20.89
2018-08-25T12:08:48.250Z,20.86
2018-08-25T12:10:41.039Z,20.79
2018-08-25T12:11:40.989Z,20.76
2018-08-25T12:13:33.821Z,20.79
2018-08-25T12:14:33.727Z,20.81
2018-08-25T12:16:26.556Z,20.74
2018-08-25T12:17:26.461Z,20.71
2018-08-25T12:19:19.282Z,20.71
2018-08-25T12:20:19.201Z,20.71
2018-08-25T12:22:12.609Z,20.74
2018-08-25T12:23:11.941Z,20.76
2018-08-25T12:25:04.761Z,20.81
2018-08-25T12:26:04.680Z,20.80
2018-08-25T12:27:57.470Z,20.84
2018-08-25T12:28:57.419Z,20.96
2018-08-25T12:30:50.232Z,21.09
2018-08-25T12:31:50.150Z,21.09
2018-08-25T12:33:42.937Z,21.27
2018-08-25T12:34:42.885Z,21.26
2018-08-25T12:36:35.712Z,21.26
2018-08-25T12:37:35.626Z,21.24
2018-08-25T12:39:28.488Z,21.23
2018-08-25T12:40:28.386Z,21.14
2018-08-25T12:42:21.195Z,21.06
2018-08-25T12:43:21.168Z,21.14
2018-08-25T12:45:13.969Z,21.01
2018-08-25T12:46:13.883Z,21.02
2018-08-25T12:48:06.701Z,21.02
2018-08-25T12:49:06.620Z,20.98
2018-08-25T12:50:59.402Z,21.06
2018-08-25T12:51:59.352Z,21.09
2018-08-25T12:53:52.173Z,21.09
2018-08-25T12:54:52.090Z,21.09
2018-08-25T12:56:44.875Z,21.02
2018-08-25T12:57:44.827Z,20.91
2018-08-25T12:59:37.662Z,20.90
2018-08-25T13:00:37.565Z,20.98
2018-08-25T13:02:30.354Z,20.87
2018-08-25T13:03:30.304Z,20.89
2018-08-25T13:05:23.124Z,20.89
2018-08-25T13:06:23.043Z,20.86
2018-08-25T13:08:15.827Z,20.87
2018-08-25T13:09:15.777Z,20.81
2018-08-25T13:11:08.596Z,20.76
2018-08-25T13:12:08.512Z,20.84
2018-08-25T13:14:01.300Z,20.81
2018-08-25T13:15:01.252Z,20.89
2018-08-25T13:16:54.068Z,20.87
2018-08-25T13:17:53.985Z,20.83
2018-08-25T13:19:46.774Z,20.90
2018-08-25T13:20:46.723Z,20.86
2018-08-25T13:22:39.542Z,20.89
2018-08-25T13:23:39.460Z,20.98
2018-08-25T13:25:32.246Z,21.02
2018-08-25T13:26:32.196Z,21.04
2018-08-25T13:28:25.020Z,21.08
2018-08-25T13:29:24.937Z,21.08
2018-08-25T13:31:17.761Z,21.05
2018-08-25T13:32:17.672Z,21.05
2018-08-25T13:34:10.508Z,21.11
2018-08-25T13:35:10.411Z,21.06
2018-08-25T13:37:03.195Z,21.13
2018-08-25T13:38:03.183Z,21.11
2018-08-25T13:39:55.989Z,21.19
2018-08-25T13:40:55.886Z,21.14
2018-08-25T13:42:48.674Z,21.13
2018-08-25T13:43:48.626Z,21.14
2018-08-25T13:45:41.448Z,21.24
2018-08-25T13:46:41.367Z,21.16
2018-08-25T13:48:34.151Z,21.21
2018-08-25T13:49:34.101Z,21.27
2018-08-25T13:51:26.921Z,21.19
2018-08-25T13:52:26.877Z,21.19
2018-08-25T13:54:19.630Z,21.14
2018-08-25T13:55:19.581Z,21.23
2018-08-25T13:57:12.403Z,21.29
2018-08-25T13:58:12.360Z,21.16
2018-08-25T14:00:05.108Z,21.17
2018-08-25T14:01:05.058Z,21.06
2018-08-25T14:02:57.886Z,21.02
2018-08-25T14:03:57.796Z,20.96
2018-08-25T14:05:50.587Z,20.91
2018-08-25T14:06:50.536Z,20.87
2018-08-25T14:08:43.356Z,20.99
2018-08-25T14:09:43.275Z,21.02
2018-08-25T14:11:36.061Z,20.91
2018-08-25T14:12:36.011Z,20.90
2018-08-25T14:14:28.831Z,20.95
2018-08-25T14:15:28.750Z,20.91
2018-08-25T14:17:21.540Z,20.80
2018-08-25T14:18:21.490Z,20.74
2018-08-25T14:20:14.313Z,20.59
2018-08-25T14:21:14.229Z,20.56
2018-08-25T14:23:07.018Z,20.47
2018-08-25T14:24:06.965Z,20.47
2018-08-25T14:25:59.787Z,20.50
2018-08-25T14:26:59.705Z,20.53
2018-08-25T14:28:52.527Z,20.62
2018-08-25T14:29:52.441Z,20.65
2018-08-25T14:31:45.261Z,20.72
2018-08-25T14:32:45.178Z,20.76
2018-08-25T14:34:37.967Z,20.86
2018-08-25T14:35:37.919Z,20.81
2018-08-25T14:37:30.738Z,20.90
2018-08-25T14:38:30.658Z,20.90
2018-08-25T14:40:23.447Z,20.86
2018-08-25T14:41:23.397Z,20.83
2018-08-25T14:43:16.218Z,20.91
2018-08-25T14:44:16.135Z,20.86
2018-08-25T14:46:08.923Z,20.81
2018-08-25T14:47:08.894Z,20.83
2018-08-25T14:49:01.704Z,20.84
2018-08-25T14:50:01.612Z,20.86
2018-08-25T14:51:54.394Z,20.81
2018-08-25T14:52:54.344Z,20.83
2018-08-25T14:54:47.163Z,20.80
2018-08-25T14:55:47.086Z,20.81
2018-08-25T14:57:39.869Z,20.81
2018-08-25T14:58:39.818Z,20.86
2018-08-25T15:00:32.739Z,20.84
2018-08-25T15:01:32.558Z,20.87
2018-08-25T15:03:25.397Z,20.86
2018-08-25T15:04:25.296Z,20.89
2018-08-25T15:06:18.113Z,20.96
2018-08-25T15:07:18.032Z,20.99
2018-08-25T15:09:10.821Z,20.87
2018-08-25T15:10:10.771Z,21.01
2018-08-25T15:12:03.593Z,21.04
2018-08-25T15:13:03.507Z,21.01
2018-08-25T15:14:56.296Z,21.01
2018-08-25T15:15:56.246Z,21.02
2018-08-25T15:17:49.066Z,20.98
2018-08-25T15:18:49.043Z,20.98
2018-08-25T15:20:41.773Z,21.13
2018-08-25T15:21:41.723Z,21.05
2018-08-25T15:23:34.543Z,21.08
2018-08-25T15:24:34.460Z,21.06
2018-08-25T15:26:27.251Z,21.08
2018-08-25T15:27:27.291Z,21.09
2018-08-25T15:29:20.025Z,21.02
2018-08-25T15:30:19.936Z,21.06
2018-08-25T15:32:12.724Z,21.09
2018-08-25T15:33:12.675Z,21.06
2018-08-25T15:35:05.498Z,21.09
2018-08-25T15:36:05.411Z,21.13
2018-08-25T15:37:58.200Z,21.13
2018-08-25T15:38:58.153Z,21.16
2018-08-25T15:40:50.967Z,21.11
2018-08-25T15:41:50.889Z,21.13
2018-08-25T15:43:43.673Z,21.11
2018-08-25T15:44:43.623Z,21.16
2018-08-25T15:46:36.451Z,21.06
2018-08-25T15:47:36.360Z,21.08
2018-08-25T15:49:29.147Z,20.95
2018-08-25T15:50:29.099Z,21.01
2018-08-25T15:52:21.923Z,21.01
2018-08-25T15:53:21.838Z,20.99
2018-08-25T15:55:14.670Z,21.05
2018-08-25T15:56:14.574Z,20.99
2018-08-25T15:58:07.394Z,21.04
2018-08-25T15:59:07.313Z,21.08
2018-08-25T16:01:00.099Z,21.04
2018-08-25T16:02:00.049Z,21.02
2018-08-25T16:03:52.873Z,21.02
2018-08-25T16:04:52.787Z,21.11
2018-08-25T16:06:45.574Z,21.16
2018-08-25T16:07:45.523Z,21.14
2018-08-25T16:09:38.341Z,21.06
2018-08-25T16:10:38.259Z,21.02
2018-08-25T16:12:31.220Z,21.08
2018-08-25T16:13:30.999Z,21.08
2018-08-25T16:15:23.819Z,21.14
2018-08-25T16:16:23.737Z,21.11
2018-08-25T16:18:16.528Z,21.11
2018-08-25T16:19:16.507Z,21.14
2018-08-25T16:21:09.311Z,21.16
2018-08-25T16:22:09.220Z,21.19
2018-08-25T16:24:02.008Z,21.20
2018-08-25T16:25:01.957Z,21.21
2018-08-25T16:26:54.832Z,21.14
2018-08-25T16:27:54.697Z,21.17
2018-08-25T16:29:47.485Z,21.14
2018-08-25T16:30:47.437Z,21.21
2018-08-25T16:32:40.255Z,21.21
2018-08-25T16:33:40.209Z,21.20
2018-08-25T16:35:32.966Z,21.20
2018-08-25T16:36:32.911Z,21.26
2018-08-25T16:38:25.731Z,21.19
2018-08-25T16:39:25.709Z,21.27
2018-08-25T16:41:18.438Z,21.23
2018-08-25T16:42:18.390Z,21.17
2018-08-25T16:44:11.210Z,21.32
2018-08-25T16:45:11.128Z,21.29
2018-08-25T16:47:03.915Z,21.19
2018-08-25T16:48:03.864Z,21.30
2018-08-25T16:49:56.686Z,21.27
2018-08-25T16:50:56.603Z,21.38
2018-08-25T16:52:49.391Z,21.32
2018-08-25T16:53:49.340Z,21.35
2018-08-25T16:55:42.204Z,21.38
2018-08-25T16:56:42.077Z,21.38
2018-08-25T16:58:34.863Z,21.30
2018-08-25T16:59:34.812Z,21.29
2018-08-25T17:01:27.643Z,21.34
2018-08-25T17:02:27.550Z,21.34
2018-08-25T17:04:20.341Z,21.35
2018-08-25T17:05:20.292Z,21.34
2018-08-25T17:07:13.109Z,21.34
2018-08-25T17:08:13.029Z,21.38
2018-08-25T17:10:05.818Z,21.35
2018-08-25T17:11:05.771Z,21.23
2018-08-25T17:12:58.592Z,21.24
2018-08-25T17:13:58.508Z,21.26
2018-08-25T17:15:51.297Z,21.17
2018-08-25T17:16:51.246Z,21.19
2018-08-25T17:18:44.068Z,21.23
2018-08-25T17:19:43.988Z,21.23
2018-08-25T17:21:36.775Z,21.21
2018-08-25T17:22:36.725Z,21.23
2018-08-25T17:24:29.547Z,21.27
2018-08-25T17:25:29.465Z,21.20
2018-08-25T17:27:22.251Z,21.17
2018-08-25T17:28:22.203Z,21.26
2018-08-25T17:30:15.021Z,21.19
2018-08-25T17:31:14.940Z,21.27
2018-08-25T17:33:07.760Z,21.29
2018-08-25T17:34:07.681Z,21.32
2018-08-25T17:36:00.503Z,21.24
2018-08-25T17:37:00.422Z,21.24
2018-08-25T17:38:53.211Z,21.20
2018-08-25T17:39:53.160Z,21.23
2018-08-25T17:41:45.979Z,21.23
2018-08-25T17:42:45.899Z,21.17
2018-08-25T17:44:38.687Z,21.20
2018-08-25T17:45:38.637Z,21.14
2018-08-25T17:47:31.456Z,21.11
2018-08-25T17:48:31.373Z,21.08
2018-08-25T17:50:24.163Z,21.09
2018-08-25T17:51:24.113Z,21.05
2018-08-25T17:53:16.931Z,21.06
2018-08-25T17:54:16.849Z,21.08
2018-08-25T17:56:09.638Z,21.05
2018-08-25T17:57:09.658Z,21.02
2018-08-25T17:59:02.425Z,21.04
2018-08-25T18:00:02.329Z,21.05
2018-08-25T18:01:55.118Z,21.09
2018-08-25T18:02:55.066Z,21.08
2018-08-25T18:04:47.886Z,21.08
2018-08-25T18:05:47.806Z,20.98
2018-08-25T18:07:40.592Z,20.99
2018-08-25T18:08:40.542Z,20.98
2018-08-25T18:10:33.362Z,20.98
2018-08-25T18:11:33.280Z,21.01
2018-08-25T18:13:26.069Z,21.08
2018-08-25T18:14:26.019Z,21.04
2018-08-25T18:16:18.842Z,20.96
2018-08-25T18:17:18.760Z,20.99
2018-08-25T18:19:12.056Z,20.98
2018-08-25T18:20:11.993Z,20.87
2018-08-25T18:22:04.825Z,20.95
2018-08-25T18:23:04.731Z,20.86
2018-08-25T18:24:57.520Z,20.99
2018-08-25T18:25:57.467Z,21.09
2018-08-25T18:27:50.286Z,21.06
2018-08-25T18:28:50.205Z,21.04
2018-08-25T18:30:42.999Z,21.16
2018-08-25T18:31:42.947Z,21.14